Time;durP1;ratioP1;P1;durP2;ratioP2;P2;SDS_P1;SDS_P2;PMS_P1;PMS_P2;Temp;Humidity;BMP_temperature;BMP_pressure;BME280_temperature;BME280_humidity;BME280_pressure;Samples;Min_cycle;Max_cycle;Signal;HPM_P1;HPM_P2
2022/10/16 00:01:51;;;;;;;2.27;1.80;;;18.30;78.80;18.50;96472.00;;;;5048574;28;20224;-82
2022/10/16 00:04:21;;;;;;;4.33;1.77;;;18.20;78.80;18.40;96472.00;;;;5055244;28;20273;-83
2022/10/16 00:06:54;;;;;;;1.77;1.67;;;18.20;78.70;18.40;96474.00;;;;5048903;28;20255;-83
2022/10/16 00:09:21;;;;;;;1.90;1.80;;;18.20;78.70;18.30;96474.00;;;;5047095;28;20284;-83
2022/10/16 00:11:48;;;;;;;4.53;2.20;;;18.10;78.70;18.30;96488.00;;;;5053696;28;20285;-83
2022/10/16 00:14:19;;;;;;;5.63;1.80;;;18.00;78.70;18.20;96490.00;;;;5050270;28;20196;-83
2022/10/16 00:16:46;;;;;;;2.00;1.60;;;18.00;78.70;18.20;96490.00;;;;5049972;28;20235;-83
2022/10/16 00:19:18;;;;;;;1.53;1.43;;;18.00;78.80;18.20;96494.00;;;;5048353;28;20207;-83
2022/10/16 00:21:45;;;;;;;2.40;1.90;;;17.90;78.90;18.20;96492.00;;;;5052202;28;20684;-83
2022/10/16 00:24:14;;;;;;;3.10;1.60;;;17.90;79.10;18.10;96493.00;;;;5051936;28;20205;-83
2022/10/16 00:26:43;;;;;;;1.37;1.27;;;17.90;79.20;18.10;96486.00;;;;5051928;28;20649;-82
2022/10/16 00:29:10;;;;;;;2.07;1.87;;;17.80;79.10;18.10;96489.00;;;;5053647;28;20246;-83
2022/10/16 00:31:38;;;;;;;1.83;1.50;;;17.80;79.80;18.00;96487.00;;;;5054413;28;20245;-82
2022/10/16 00:34:06;;;;;;;1.50;1.33;;;17.80;79.00;18.00;96487.00;;;;5049210;28;20205;-82
2022/10/16 00:36:35;;;;;;;1.83;1.73;;;17.70;78.90;18.00;96473.00;;;;5054897;28;20252;-82
2022/10/16 00:39:04;;;;;;;1.67;1.40;;;17.70;79.10;18.00;96473.00;;;;5050659;28;20193;-82
2022/10/16 00:41:32;;;;;;;2.40;1.70;;;17.70;79.20;17.90;96466.00;;;;5051946;28;20242;-82
2022/10/16 00:44:04;;;;;;;2.77;1.50;;;17.70;79.20;17.90;96466.00;;;;5052103;28;20204;-82
2022/10/16 00:46:40;;;;;;;3.40;1.40;;;17.60;79.10;17.90;96468.00;;;;5052433;28;20666;-82
2022/10/16 00:49:12;;;;;;;2.30;1.20;;;17.60;79.90;17.90;96472.00;;;;5046991;28;20201;-83
2022/10/16 00:51:48;;;;;;;1.53;1.00;;;17.60;79.30;17.80;96472.00;;;;5051311;28;20196;-83
2022/10/16 00:54:23;;;;;;;1.00;1.00;;;17.60;79.50;17.80;96476.00;;;;5051671;28;20649;-83
2022/10/16 00:56:51;;;;;;;1.43;1.10;;;17.60;79.60;17.80;96467.00;;;;5045780;28;20312;-83
2022/10/16 00:59:27;;;;;;;1.13;1.07;;;17.50;79.50;17.80;96475.00;;;;5057192;28;20227;-83
2022/10/16 01:01:56;;;;;;;1.43;1.17;;;17.50;79.50;17.80;96477.00;;;;5046800;28;20212;-82
2022/10/16 01:04:26;;;;;;;1.87;1.27;;;17.50;79.40;17.70;96485.00;;;;5048781;28;20192;-83
2022/10/16 01:07:10;;;;;;;1.20;1.10;;;17.50;79.40;17.70;96493.00;;;;5043236;28;20209;-83
2022/10/16 01:09:59;;;;;;;1.07;0.97;;;17.50;79.40;17.70;96488.00;;;;5049585;28;20706;-82
2022/10/16 01:12:43;;;;;;;1.43;0.93;;;17.50;79.70;17.70;96496.00;;;;5044329;28;20217;-83
2022/10/16 01:15:34;;;;;;;1.53;0.90;;;17.40;79.80;17.70;96485.00;;;;5051982;28;20276;-83
2022/10/16 01:18:17;;;;;;;1.53;1.00;;;17.40;79.90;17.70;96494.00;;;;5053582;28;20623;-83
2022/10/16 01:20:58;;;;;;;1.50;1.00;;;17.40;80.00;17.70;96492.00;;;;5042763;28;20227;-83
2022/10/16 01:24:02;;;;;;;1.10;1.00;;;17.40;80.10;17.70;96495.00;;;;5044219;28;20299;-83
2022/10/16 01:26:54;;;;;;;1.20;1.10;;;17.40;80.10;17.70;96497.00;;;;5043490;28;20646;-83
2022/10/16 01:29:29;;;;;;;1.07;0.97;;;17.40;80.10;17.70;96501.00;;;;5055819;28;20193;-83
2022/10/16 01:32:05;;;;;;;1.07;1.07;;;17.40;80.10;17.70;96505.00;;;;5049836;28;20239;-82
2022/10/16 01:34:51;;;;;;;1.67;1.00;;;17.40;80.10;17.60;96511.00;;;;5046080;28;20236;-82
2022/10/16 01:37:45;;;;;;;3.07;0.93;;;17.40;80.10;17.70;96494.00;;;;5046995;28;20252;-83
2022/10/16 01:40:24;;;;;;;1.40;1.00;;;17.40;80.10;17.60;96495.00;;;;5052735;28;20223;-83
2022/10/16 01:43:00;;;;;;;1.00;0.90;;;17.30;80.00;17.60;96494.00;;;;5053486;28;20213;-83
2022/10/16 01:45:34;;;;;;;1.40;1.20;;;17.30;79.90;17.60;96494.00;;;;5048434;28;20192;-83
2022/10/16 01:48:09;;;;;;;1.53;1.20;;;17.30;80.00;17.60;96486.00;;;;5052508;28;20224;-83
2022/10/16 01:50:41;;;;;;;4.67;1.43;;;17.30;80.00;17.60;96490.00;;;;5047056;28;20297;-83
2022/10/16 01:53:19;;;;;;;2.13;1.07;;;17.30;80.20;17.60;96488.00;;;;5051487;28;20771;-83
2022/10/16 01:55:56;;;;;;;1.57;1.10;;;17.30;80.20;17.60;96490.00;;;;5049101;28;20200;-83
2022/10/16 01:58:30;;;;;;;1.03;1.00;;;17.30;80.10;17.60;96496.00;;;;5045028;28;20218;-83
2022/10/16 02:01:02;;;;;;;1.50;1.20;;;17.30;80.20;17.60;96498.00;;;;5047134;28;20193;-84
2022/10/16 02:03:30;;;;;;;1.37;1.23;;;17.30;80.20;17.60;96496.00;;;;5047527;28;20247;-83
2022/10/16 02:06:00;;;;;;;1.20;1.00;;;17.30;80.20;17.60;96501.00;;;;5042786;28;20634;-83
2022/10/16 02:08:30;;;;;;;1.40;1.30;;;17.30;80.30;17.60;96495.00;;;;5052192;28;20227;-83
2022/10/16 02:11:01;;;;;;;1.30;1.20;;;17.30;80.40;17.60;96496.00;;;;5045492;28;20196;-83
2022/10/16 02:13:41;;;;;;;1.00;0.97;;;17.30;80.50;17.60;96490.00;;;;5055409;28;20220;-82
2022/10/16 02:16:13;;;;;;;1.53;1.30;;;17.30;80.70;17.60;96472.00;;;;5048681;28;20255;-83
2022/10/16 02:18:47;;;;;;;2.73;1.00;;;17.30;80.90;17.60;96475.00;;;;5052426;28;20193;-83
2022/10/16 02:21:26;;;;;;;1.23;1.13;;;17.30;81.10;17.60;96497.00;;;;5043645;28;20193;-83
2022/10/16 02:24:04;;;;;;;1.43;1.00;;;17.30;81.20;17.60;96511.00;;;;5045853;28;20273;-83
2022/10/16 02:26:49;;;;;;;0.90;0.90;;;17.30;81.10;17.60;96513.00;;;;5049249;28;20226;-83
2022/10/16 02:29:23;;;;;;;2.10;1.10;;;17.30;80.90;17.60;96522.00;;;;5059884;28;20207;-82
2022/10/16 02:31:58;;;;;;;0.97;0.97;;;17.30;80.80;17.60;96516.00;;;;5047027;28;20299;-83
2022/10/16 02:34:31;;;;;;;1.30;1.00;;;17.30;80.70;17.60;96513.00;;;;5056530;28;20226;-83
2022/10/16 02:37:02;;;;;;;1.47;1.13;;;17.30;80.60;17.60;96510.00;;;;5053946;28;20644;-83
2022/10/16 02:39:34;;;;;;;3.30;0.93;;;17.30;80.50;17.60;96509.00;;;;5055142;28;20204;-82
2022/10/16 02:42:06;;;;;;;1.30;1.20;;;17.30;80.40;17.50;96518.00;;;;5052372;28;20612;-83
2022/10/16 02:44:36;;;;;;;1.90;0.80;;;17.30;80.40;17.50;96509.00;;;;5050463;28;20190;-83
2022/10/16 02:47:06;;;;;;;3.50;1.20;;;17.30;80.30;17.50;96515.00;;;;5060430;28;20231;-83
2022/10/16 02:49:33;;;;;;;0.90;0.90;;;17.20;80.10;17.50;96518.00;;;;5054892;28;20235;-83
2022/10/16 02:52:03;;;;;;;0.90;0.90;;;17.20;80.00;17.50;96526.00;;;;5052741;28;20236;-83
2022/10/16 02:54:30;;;;;;;1.27;1.03;;;17.20;79.90;17.40;96523.00;;;;5055014;28;20713;-83
2022/10/16 02:56:57;;;;;;;1.03;1.00;;;17.20;79.70;17.40;96514.00;;;;5043841;28;20303;-83
2022/10/16 02:59:27;;;;;;;1.23;1.10;;;17.20;79.60;17.40;96501.00;;;;5045246;28;20232;-83
2022/10/16 03:02:00;;;;;;;2.13;1.10;;;17.10;79.60;17.30;96492.00;;;;5041393;28;20294;-83
2022/10/16 03:04:34;;;;;;;1.53;0.90;;;17.10;79.70;17.30;96491.00;;;;5055546;28;20198;-83
2022/10/16 03:07:03;;;;;;;1.47;1.07;;;17.10;79.70;17.30;96493.00;;;;5063993;28;20201;-83
2022/10/16 03:09:30;;;;;;;2.53;0.90;;;17.10;79.70;17.30;96501.00;;;;5051943;28;20201;-83
2022/10/16 03:12:00;;;;;;;1.53;1.00;;;17.00;79.90;17.20;96507.00;;;;5048120;28;20228;-83
2022/10/16 03:14:30;;;;;;;1.20;0.97;;;17.00;80.00;17.20;96501.00;;;;5054399;28;20246;-83
2022/10/16 03:16:59;;;;;;;0.80;0.70;;;17.00;80.00;17.20;96507.00;;;;5048894;28;20255;-83
2022/10/16 03:19:32;;;;;;;0.90;0.90;;;17.00;79.90;17.20;96507.00;;;;5057036;28;20204;-82
2022/10/16 03:22:05;;;;;;;1.23;1.13;;;17.00;80.00;17.20;96508.00;;;;5054316;28;20223;-82
2022/10/16 03:24:35;;;;;;;2.30;1.00;;;16.90;79.90;17.20;96506.00;;;;5053954;28;20225;-82
2022/10/16 03:27:07;;;;;;;1.83;1.10;;;16.90;79.80;17.20;96514.00;;;;5048599;28;20197;-82
2022/10/16 03:29:37;;;;;;;0.90;0.90;;;16.90;79.70;17.10;96523.00;;;;5052835;28;20211;-82
2022/10/16 03:32:05;;;;;;;2.50;1.10;;;16.90;79.70;17.10;96515.00;;;;5051465;28;20300;-83
2022/10/16 03:34:36;;;;;;;2.37;1.10;;;16.90;79.70;17.10;96507.00;;;;5061457;28;20205;-84
2022/10/16 03:37:04;;;;;;;1.20;0.93;;;16.90;79.70;17.10;96515.00;;;;5075768;22;21946;-87
2022/10/16 03:39:31;;;;;;;0.83;0.83;;;16.80;79.60;17.10;96513.00;;;;5047500;28;20677;-86
2022/10/16 03:41:58;;;;;;;1.77;1.00;;;16.80;79.60;17.00;96510.00;;;;5045914;28;20200;-86
2022/10/16 03:44:25;;;;;;;0.77;0.77;;;16.80;79.70;17.00;96510.00;;;;5029275;28;20288;-86
2022/10/16 03:46:52;;;;;;;1.23;1.13;;;16.80;79.70;17.00;96514.00;;;;5035617;28;20204;-86
2022/10/16 03:49:19;;;;;;;1.27;1.17;;;16.70;79.90;17.00;96514.00;;;;5037385;28;20211;-86
2022/10/16 03:51:47;;;;;;;1.13;0.93;;;16.70;80.00;17.00;96511.00;;;;5049839;28;20559;-86
2022/10/16 03:54:15;;;;;;;1.20;0.93;;;16.70;80.10;17.00;96523.00;;;;5063387;22;20316;-80
2022/10/16 03:56:45;;;;;;;2.17;0.80;;;16.70;80.20;17.00;96522.00;;;;5049074;28;20315;-79
2022/10/16 03:59:15;;;;;;;0.80;0.80;;;16.70;80.20;17.00;96518.00;;;;5047854;28;20212;-79
2022/10/16 04:01:42;;;;;;;0.80;0.80;;;16.70;80.30;17.00;96525.00;;;;5041878;28;20279;-79
2022/10/16 04:04:09;;;;;;;1.63;0.80;;;16.70;80.40;17.00;96526.00;;;;5041846;28;20225;-78
2022/10/16 04:06:47;;;;;;;1.43;0.80;;;16.70;80.40;17.00;96531.00;;;;5048592;28;20287;-79
2022/10/16 04:09:22;;;;;;;1.50;1.20;;;16.70;80.50;17.00;96534.00;;;;5048552;28;21132;-79
2022/10/16 04:11:50;;;;;;;1.93;1.23;;;16.70;80.50;17.00;96532.00;;;;5050429;28;20273;-81
2022/10/16 04:14:17;;;;;;;1.20;1.17;;;16.70;80.60;17.10;96541.00;;;;5043149;28;20658;-79
2022/10/16 04:16:45;;;;;;;0.90;0.90;;;16.70;80.70;17.10;96543.00;;;;5043420;28;20232;-79
2022/10/16 04:19:15;;;;;;;1.07;1.00;;;16.70;80.90;17.10;96536.00;;;;5047441;28;20615;-79
2022/10/16 04:21:46;;;;;;;1.10;1.00;;;16.70;81.00;17.10;96546.00;;;;5043477;28;20209;-79
2022/10/16 04:24:13;;;;;;;1.10;1.00;;;16.80;81.20;17.10;96537.00;;;;5042407;28;20216;-79
2022/10/16 04:26:43;;;;;;;1.63;0.80;;;16.80;81.30;17.20;96532.00;;;;5052210;28;20201;-78
2022/10/16 04:29:10;;;;;;;0.90;0.90;;;16.80;81.40;17.20;96531.00;;;;5048831;28;20639;-79
2022/10/16 04:31:37;;;;;;;1.40;1.17;;;16.80;81.50;17.20;96542.00;;;;5039806;28;20193;-79
2022/10/16 04:34:07;;;;;;;1.03;0.80;;;16.80;81.40;17.30;96549.00;;;;5046523;28;20189;-78
2022/10/16 04:36:35;;;;;;;1.03;0.80;;;16.90;81.50;17.30;96537.00;;;;5045402;28;20217;-79
2022/10/16 04:39:02;;;;;;;1.53;1.00;;;16.90;81.50;17.30;96528.00;;;;5044907;28;20287;-78
2022/10/16 04:41:31;;;;;;;1.20;1.10;;;16.90;81.50;17.30;96525.00;;;;5040318;28;20248;-78
2022/10/16 04:43:59;;;;;;;1.63;0.97;;;16.90;81.50;17.30;96528.00;;;;5041729;28;20193;-79
2022/10/16 04:46:28;;;;;;;0.83;0.83;;;17.00;81.70;17.40;96528.00;;;;5046216;28;20262;-79
2022/10/16 04:48:55;;;;;;;1.87;1.03;;;17.00;81.60;17.40;96516.00;;;;5048007;28;20209;-79
2022/10/16 04:51:29;;;;;;;1.70;0.87;;;17.00;82.30;17.40;96518.00;;;;5042645;28;20201;-79
2022/10/16 04:53:58;;;;;;;0.90;0.80;;;17.00;81.70;17.40;96525.00;;;;5047101;28;20254;-79
2022/10/16 04:56:28;;;;;;;1.73;0.83;;;17.00;81.70;17.40;96529.00;;;;5040897;28;20203;-79
2022/10/16 04:58:55;;;;;;;1.43;0.90;;;17.00;81.70;17.40;96535.00;;;;5039483;28;20205;-79
2022/10/16 05:01:27;;;;;;;1.07;0.93;;;17.10;81.90;17.40;96537.00;;;;5044834;28;20299;-79
2022/10/16 05:03:54;;;;;;;1.93;1.00;;;17.10;81.90;17.50;96541.00;;;;5045205;28;20715;-78
2022/10/16 05:06:21;;;;;;;0.60;0.60;;;17.10;81.80;17.50;96545.00;;;;5043857;28;20288;-79
2022/10/16 05:08:54;;;;;;;3.27;0.97;;;17.10;81.80;17.50;96548.00;;;;5040770;28;20239;-79
2022/10/16 05:11:21;;;;;;;1.07;0.80;;;17.10;81.80;17.50;96551.00;;;;5033904;28;20201;-79
2022/10/16 05:13:52;;;;;;;1.90;0.70;;;17.10;81.80;17.50;96546.00;;;;5044014;28;20307;-79
2022/10/16 05:16:30;;;;;;;2.03;0.80;;;17.10;81.80;17.50;96553.00;;;;5039391;28;20251;-79
2022/10/16 05:19:04;;;;;;;0.90;0.90;;;17.20;81.80;17.50;96550.00;;;;5043451;28;20225;-79
2022/10/16 05:21:41;;;;;;;2.87;0.70;;;17.20;81.70;17.50;96543.00;;;;5045736;28;20223;-79
2022/10/16 05:24:11;;;;;;;1.33;1.13;;;17.20;81.70;17.50;96544.00;;;;5045013;28;20212;-79
2022/10/16 05:26:38;;;;;;;0.60;0.60;;;17.20;81.70;17.60;96536.00;;;;5043701;28;20655;-79
2022/10/16 05:29:05;;;;;;;1.67;1.00;;;17.20;81.70;17.60;96528.00;;;;5044174;28;20299;-78
2022/10/16 05:31:36;;;;;;;1.60;0.80;;;17.20;81.80;17.60;96533.00;;;;5044091;28;20204;-79
2022/10/16 05:34:07;;;;;;;0.90;0.90;;;17.20;81.90;17.60;96527.00;;;;5041666;28;20608;-79
2022/10/16 05:36:41;;;;;;;1.33;0.90;;;17.20;81.90;17.60;96530.00;;;;5043473;28;20661;-78
2022/10/16 05:39:21;;;;;;;0.70;0.70;;;17.20;82.00;17.60;96530.00;;;;5048781;28;20232;-79
2022/10/16 05:41:52;;;;;;;1.63;0.80;;;17.30;82.00;17.60;96533.00;;;;5038324;28;20288;-78
2022/10/16 05:44:30;;;;;;;4.47;1.20;;;17.30;81.80;17.60;96552.00;;;;5039345;28;20259;-79
2022/10/16 05:47:08;;;;;;;0.63;0.63;;;17.30;81.60;17.60;96559.00;;;;5038166;28;20328;-78
2022/10/16 05:49:47;;;;;;;0.90;0.90;;;17.30;81.40;17.60;96561.00;;;;5046873;28;20291;-79
2022/10/16 05:52:22;;;;;;;0.80;0.80;;;17.30;81.40;17.60;96560.00;;;;5043224;28;20328;-79
2022/10/16 05:54:55;;;;;;;0.80;0.80;;;17.30;81.40;17.60;96563.00;;;;5032429;28;20251;-79
2022/10/16 05:57:28;;;;;;;1.17;0.90;;;17.30;81.30;17.60;96560.00;;;;5052426;28;20243;-81
2022/10/16 06:00:00;;;;;;;0.80;0.80;;;17.30;81.30;17.60;96559.00;;;;5040788;28;20237;-81
2022/10/16 06:02:34;;;;;;;1.47;1.00;;;17.30;81.20;17.60;96558.00;;;;5053173;28;20271;-81
2022/10/16 06:05:04;;;;;;;0.87;0.83;;;17.30;81.20;17.60;96561.00;;;;5045846;28;20813;-81
2022/10/16 06:07:41;;;;;;;2.70;0.90;;;17.30;81.00;17.60;96564.00;;;;5046179;28;20288;-81
2022/10/16 06:10:20;;;;;;;0.90;0.90;;;17.20;80.90;17.60;96562.00;;;;5033617;28;20209;-81
2022/10/16 06:12:53;;;;;;;1.00;0.90;;;17.20;80.80;17.60;96562.00;;;;5048656;28;20716;-81
2022/10/16 06:15:20;;;;;;;1.07;1.00;;;17.20;80.80;17.60;96565.00;;;;5048907;28;20563;-81
2022/10/16 06:17:48;;;;;;;2.90;1.00;;;17.20;80.80;17.60;96568.00;;;;5041901;28;20683;-81
2022/10/16 06:20:15;;;;;;;2.00;0.90;;;17.20;80.80;17.60;96575.00;;;;5042057;28;20201;-81
2022/10/16 06:22:46;;;;;;;0.70;0.70;;;17.20;80.90;17.60;96578.00;;;;5051691;28;20228;-81
2022/10/16 06:25:25;;;;;;;1.40;0.80;;;17.20;80.90;17.50;96580.00;;;;5047257;28;20216;-81
2022/10/16 06:27:52;;;;;;;1.27;0.63;;;17.20;81.00;17.60;96587.00;;;;5051874;28;20192;-81
2022/10/16 06:30:28;;;;;;;1.00;0.80;;;17.20;81.00;17.50;96579.00;;;;5040178;28;20204;-81
2022/10/16 06:33:03;;;;;;;2.90;0.70;;;17.20;81.00;17.50;96588.00;;;;5037584;28;20248;-81
2022/10/16 06:35:31;;;;;;;0.83;0.70;;;17.20;80.80;17.50;96595.00;;;;5051957;28;20203;-81
2022/10/16 06:38:01;;;;;;;1.53;0.80;;;17.10;80.70;17.50;96606.00;;;;5053794;28;20307;-80
2022/10/16 06:40:36;;;;;;;1.20;0.60;;;17.10;80.60;17.50;96610.00;;;;5053389;28;20219;-80
2022/10/16 06:43:08;;;;;;;2.10;0.70;;;17.10;80.60;17.50;96610.00;;;;5041080;28;20640;-81
2022/10/16 06:45:36;;;;;;;1.73;0.70;;;17.10;80.60;17.50;96607.00;;;;5051340;28;20295;-82
2022/10/16 06:48:07;;;;;;;2.73;1.10;;;17.10;80.60;17.50;96620.00;;;;5041932;28;20205;-81
2022/10/16 06:50:37;;;;;;;1.30;0.80;;;17.10;80.70;17.40;96623.00;;;;5039246;28;20244;-81
2022/10/16 06:53:06;;;;;;;0.90;0.90;;;17.10;80.70;17.40;96631.00;;;;5051461;28;20470;-81
2022/10/16 06:55:33;;;;;;;0.90;0.90;;;17.10;80.80;17.40;96624.00;;;;5035161;28;20204;-81
2022/10/16 06:58:01;;;;;;;0.90;0.90;;;17.10;81.00;17.50;96636.00;;;;5050215;28;20638;-81
2022/10/16 07:00:34;;;;;;;1.47;1.30;;;17.10;81.30;17.50;96628.00;;;;5050396;28;20228;-81
2022/10/16 07:03:06;;;;;;;1.13;1.10;;;17.10;81.60;17.60;96631.00;;;;5048656;28;20243;-81
2022/10/16 07:05:39;;;;;;;0.80;0.80;;;17.10;82.00;17.60;96625.00;;;;5034573;28;20260;-81
2022/10/16 07:08:09;;;;;;;0.87;0.87;;;17.20;82.30;17.70;96629.00;;;;5032827;28;20557;-82
2022/10/16 07:10:39;;;;;;;1.10;0.80;;;17.20;82.50;17.80;96634.00;;;;5033446;28;20224;-81
2022/10/16 07:13:07;;;;;;;0.80;0.80;;;17.20;82.70;17.80;96638.00;;;;5035757;28;20225;-81
2022/10/16 07:15:35;;;;;;;0.90;0.90;;;17.30;82.90;17.90;96638.00;;;;5039545;28;20295;-82
2022/10/16 07:18:06;;;;;;;1.90;0.90;;;17.30;83.00;17.90;96638.00;;;;5053642;28;20243;-81
2022/10/16 07:20:33;;;;;;;1.13;1.00;;;17.40;83.00;18.00;96642.00;;;;5050404;28;20212;-82
2022/10/16 07:23:03;;;;;;;1.90;1.20;;;17.40;82.80;18.00;96646.00;;;;5038720;28;20694;-83
2022/10/16 07:25:33;;;;;;;0.77;0.77;;;17.50;82.80;18.00;96647.00;;;;5049980;28;20227;-82
2022/10/16 07:28:02;;;;;;;1.73;0.87;;;17.50;82.80;18.10;96651.00;;;;5048876;28;20201;-81
2022/10/16 07:30:35;;;;;;;1.20;1.10;;;17.50;82.70;18.10;96655.00;;;;5048272;28;20857;-84
2022/10/16 07:33:04;;;;;;;0.90;0.90;;;17.60;82.70;18.10;96662.00;;;;5050679;28;20303;-82
2022/10/16 07:35:36;;;;;;;1.33;1.23;;;17.60;82.60;18.20;96665.00;;;;5045973;28;20231;-82
2022/10/16 07:38:03;;;;;;;1.07;1.07;;;17.70;82.80;18.20;96656.00;;;;5041991;28;20228;-81
2022/10/16 07:40:30;;;;;;;1.67;1.20;;;17.70;82.80;18.20;96660.00;;;;5044500;28;20573;-83
2022/10/16 07:42:57;;;;;;;2.10;1.17;;;17.70;82.90;18.30;96670.00;;;;5048610;28;20703;-83
2022/10/16 07:45:25;;;;;;;1.07;0.80;;;17.80;83.10;18.40;96676.00;;;;5043183;28;20601;-83
2022/10/16 07:47:52;;;;;;;1.30;1.00;;;17.80;83.20;18.40;96682.00;;;;5043110;28;20205;-84
2022/10/16 07:50:19;;;;;;;0.90;0.73;;;17.90;83.20;18.50;96690.00;;;;5049601;28;20288;-81
2022/10/16 07:52:51;;;;;;;0.90;0.90;;;17.90;83.20;18.60;96682.00;;;;5052118;28;20227;-81
2022/10/16 07:55:18;;;;;;;1.33;0.87;;;18.00;83.00;18.70;96686.00;;;;5048407;28;20204;-82
2022/10/16 07:57:45;;;;;;;1.43;0.90;;;18.10;83.00;18.80;96686.00;;;;5041720;28;20229;-83
2022/10/16 08:00:16;;;;;;;0.73;0.73;;;18.20;82.90;18.90;96691.00;;;;5043746;28;20284;-82
2022/10/16 08:02:44;;;;;;;0.73;0.73;;;18.30;83.60;19.00;96690.00;;;;5044014;28;20244;-82
2022/10/16 08:05:15;;;;;;;0.70;0.70;;;18.40;83.20;19.10;96697.00;;;;5044569;28;20292;-85
2022/10/16 08:07:59;;;;;;;1.33;0.80;;;18.40;82.90;19.20;96690.00;;;;5046113;28;20619;-82
2022/10/16 08:10:36;;;;;;;0.80;0.77;;;18.60;82.40;19.40;96690.00;;;;5048318;28;20207;-81
2022/10/16 08:13:06;;;;;;;0.80;0.57;;;18.70;82.20;19.50;96694.00;;;;5050228;28;20244;-81
2022/10/16 08:15:36;;;;;;;0.73;0.73;;;18.80;82.50;19.70;96698.00;;;;5053134;28;20292;-81
2022/10/16 08:18:07;;;;;;;0.70;0.70;;;18.90;82.50;19.80;96701.00;;;;5044929;28;20232;-82
2022/10/16 08:20:35;;;;;;;0.97;0.97;;;19.10;82.50;20.00;96705.00;;;;5050728;28;20194;-81
2022/10/16 08:23:04;;;;;;;1.43;0.93;;;19.20;81.90;20.10;96700.00;;;;5048451;28;20227;-81
2022/10/16 08:25:32;;;;;;;0.97;0.90;;;19.30;81.50;20.30;96706.00;;;;5046745;28;20268;-81
2022/10/16 08:27:59;;;;;;;0.70;0.70;;;19.40;82.00;20.40;96708.00;;;;5056956;28;20204;-81
2022/10/16 08:30:26;;;;;;;0.87;0.87;;;19.60;81.40;20.50;96713.00;;;;5037789;28;20228;-81
2022/10/16 08:32:54;;;;;;;1.23;0.77;;;19.70;81.40;20.70;96715.00;;;;5055352;28;20638;-81
2022/10/16 08:35:21;;;;;;;0.60;0.60;;;19.80;81.00;20.80;96714.00;;;;5039427;28;20193;-81
2022/10/16 08:37:54;;;;;;;0.97;0.80;;;20.00;80.90;20.90;96713.00;;;;5051844;28;20266;-82
2022/10/16 08:40:34;;;;;;;1.80;0.80;;;20.10;80.50;21.00;96720.00;;;;5043337;28;20221;-82
2022/10/16 08:43:35;;;;;;;0.80;0.80;;;20.20;79.70;21.20;96724.00;;;;5047617;28;20242;-81
2022/10/16 08:46:31;;;;;;;2.50;0.67;;;20.30;79.90;21.30;96725.00;;;;5049436;28;20189;-82
2022/10/16 08:49:01;;;;;;;0.70;0.70;;;20.40;79.50;21.50;96734.00;;;;5038195;28;20210;-81
2022/10/16 08:51:38;;;;;;;1.07;0.70;;;20.60;79.80;21.60;96733.00;;;;5050322;28;20236;-81
2022/10/16 08:54:19;;;;;;;0.70;0.70;;;20.70;79.90;21.70;96744.00;;;;5046988;28;20670;-81
2022/10/16 08:56:48;;;;;;;0.63;0.63;;;20.80;79.90;21.90;96741.00;;;;5053475;28;20236;-81
2022/10/16 08:59:19;;;;;;;0.60;0.60;;;21.00;78.80;22.00;96748.00;;;;5036944;28;20263;-81
2022/10/16 09:01:50;;;;;;;0.97;0.77;;;21.10;78.10;22.20;96751.00;;;;5054294;28;20367;-82
2022/10/16 09:04:51;;;;;;;1.40;1.10;;;21.20;77.90;22.30;96744.00;;;;5047732;28;20193;-82
2022/10/16 09:07:31;;;;;;;0.67;0.67;;;21.40;78.30;22.40;96753.00;;;;5049661;28;20283;-83
2022/10/16 09:10:20;;;;;;;2.30;0.90;;;21.50;77.30;22.60;96748.00;;;;5048354;28;20223;-83
2022/10/16 09:12:59;;;;;;;0.70;0.70;;;21.60;76.40;22.70;96741.00;;;;5049945;28;20726;-83
2022/10/16 09:15:35;;;;;;;1.23;0.70;;;21.70;75.80;22.80;96739.00;;;;5043103;28;20404;-83
2022/10/16 09:18:15;;;;;;;0.93;0.80;;;21.90;75.60;22.90;96748.00;;;;5039517;28;20192;-82
2022/10/16 09:20:52;;;;;;;0.60;0.60;;;22.00;76.60;23.10;96752.00;;;;5042186;28;20673;-81
2022/10/16 09:23:27;;;;;;;0.67;0.67;;;22.10;76.00;23.20;96749.00;;;;5041028;28;20216;-82
2022/10/16 09:25:57;;;;;;;0.67;0.67;;;22.20;76.60;23.40;96748.00;;;;5043696;28;20694;-82
2022/10/16 09:28:26;;;;;;;0.73;0.73;;;22.40;76.10;23.60;96750.00;;;;5042666;28;20220;-83
2022/10/16 09:30:54;;;;;;;0.70;0.70;;;22.50;75.90;23.70;96748.00;;;;5042760;28;20563;-81
2022/10/16 09:33:28;;;;;;;0.90;0.67;;;22.70;76.60;23.90;96749.00;;;;5047332;28;20278;-83
2022/10/16 09:36:01;;;;;;;0.80;0.80;;;22.80;76.50;24.00;96750.00;;;;5042841;28;20225;-84
2022/10/16 09:38:31;;;;;;;0.67;0.67;;;23.00;76.10;24.10;96756.00;;;;5063199;22;20228;-85
2022/10/16 09:41:01;;;;;;;0.47;0.43;;;23.10;75.10;24.30;96760.00;;;;5053016;28;20289;-85
2022/10/16 09:43:39;;;;;;;0.73;0.73;;;23.30;74.40;24.40;96758.00;;;;5039462;28;20226;-85
2022/10/16 09:46:09;;;;;;;0.60;0.60;;;23.50;74.30;24.50;96773.00;;;;5053055;28;20215;-85
2022/10/16 09:48:40;;;;;;;0.90;0.90;;;23.70;75.20;24.70;96770.00;;;;5052836;28;20207;-85
2022/10/16 09:51:27;;;;;;;0.50;0.50;;;23.80;75.10;24.80;96779.00;;;;5048902;28;20200;-85
2022/10/16 09:53:59;;;;;;;0.60;0.60;;;24.00;75.00;24.90;96777.00;;;;5068546;23;20250;-84
2022/10/16 09:56:32;;;;;;;0.70;0.70;;;24.10;74.90;25.10;96784.00;;;;5078074;28;20206;-84
2022/10/16 09:59:09;;;;;;;0.70;0.70;;;24.30;75.00;25.20;96788.00;;;;5075191;28;20218;-85
2022/10/16 10:01:42;;;;;;;1.00;0.77;;;24.40;74.60;25.40;96786.00;;;;5073745;28;20192;-86
2022/10/16 10:04:10;;;;;;;0.77;0.77;;;24.60;73.20;25.50;96783.00;;;;5071040;28;20855;-85
2022/10/16 10:06:44;;;;;;;0.60;0.60;;;24.80;73.80;25.70;96789.00;;;;5072246;28;20203;-85
2022/10/16 10:09:24;;;;;;;0.70;0.70;;;25.00;73.60;25.80;96775.00;;;;5054449;28;20203;-84
2022/10/16 10:11:57;;;;;;;1.63;0.63;;;25.20;72.70;26.00;96785.00;;;;5058944;28;20588;-85
2022/10/16 10:14:36;;;;;;;1.53;1.10;;;25.30;72.70;26.10;96785.00;;;;5053464;28;20193;-85
2022/10/16 10:17:17;;;;;;;0.70;0.70;;;25.40;72.10;26.20;96790.00;;;;5052527;28;20206;-84
2022/10/16 10:19:50;;;;;;;0.70;0.67;;;25.60;72.00;26.40;96788.00;;;;5058229;28;20725;-84
2022/10/16 10:22:29;;;;;;;0.80;0.70;;;25.80;72.30;26.50;96792.00;;;;5070380;28;20711;-85
2022/10/16 10:25:16;;;;;;;0.80;0.80;;;25.90;69.10;26.60;96786.00;;;;5074484;28;20215;-85
2022/10/16 10:28:11;;;;;;;0.63;0.63;;;26.00;70.70;26.70;96795.00;;;;5073362;28;20199;-84
2022/10/16 10:30:55;;;;;;;0.67;0.67;;;26.20;71.00;26.80;96787.00;;;;5055752;28;20208;-84
2022/10/16 10:33:33;;;;;;;0.60;0.60;;;26.30;67.90;26.90;96787.00;;;;5062124;28;20307;-85
2022/10/16 10:36:17;;;;;;;1.00;0.90;;;26.30;66.80;26.80;96776.00;;;;5067131;28;20768;-85
2022/10/16 10:38:52;;;;;;;1.60;1.50;;;26.40;65.30;26.80;96787.00;;;;5062862;28;20248;-85
2022/10/16 10:42:03;;;;;;;1.23;0.90;;;26.40;65.30;26.80;96782.00;;;;5060991;28;20222;-84
2022/10/16 10:44:58;;;;;;;3.00;2.33;;;26.40;66.30;26.70;96780.00;;;;5055351;28;20321;-84
2022/10/16 10:47:41;;;;;;;1.50;1.40;;;26.40;65.30;26.70;96786.00;;;;5064013;28;20227;-84
2022/10/16 10:50:22;;;;;;;1.33;1.00;;;26.30;64.80;26.60;96784.00;;;;5066921;28;20636;-85
2022/10/16 10:53:05;;;;;;;1.97;1.00;;;26.20;65.50;26.60;96793.00;;;;5070418;28;20516;-84
2022/10/16 10:55:44;;;;;;;0.80;0.80;;;26.20;66.20;26.50;96782.00;;;;5064449;28;20274;-84
2022/10/16 10:58:52;;;;;;;1.17;0.50;;;26.10;64.80;26.50;96780.00;;;;5074768;28;20203;-83
2022/10/16 11:01:30;;;;;;;0.73;0.60;;;26.10;63.80;26.40;96785.00;;;;5066436;28;20652;-82
2022/10/16 11:04:41;;;;;;;0.60;0.60;;;26.00;64.00;26.40;96776.00;;;;5075571;28;20227;-82
2022/10/16 11:07:18;;;;;;;0.80;0.80;;;25.90;64.40;26.30;96773.00;;;;5073995;28;20196;-83
2022/10/16 11:09:50;;;;;;;4.97;4.57;;;25.90;65.00;26.30;96769.00;;;;5077221;28;20250;-83
2022/10/16 11:12:22;;;;;;;5.07;4.67;;;25.80;65.10;26.30;96772.00;;;;5081610;28;20243;-83
2022/10/16 11:14:59;;;;;;;1.93;1.80;;;25.80;65.60;26.30;96772.00;;;;5076607;28;20225;-83
2022/10/16 11:17:32;;;;;;;1.13;1.10;;;25.80;64.70;26.30;96767.00;;;;5075062;28;20614;-83
2022/10/16 11:20:14;;;;;;;1.83;0.70;;;25.70;64.60;26.30;96766.00;;;;5070120;28;20217;-83
2022/10/16 11:22:49;;;;;;;0.67;0.67;;;25.70;65.60;26.30;96771.00;;;;5073963;28;20242;-82